Time;durP1;ratioP1;P1;durP2;ratioP2;P2;SDS_P1;SDS_P2;PMS_P1;PMS_P2;Temp;Humidity;BMP_temperature;BMP_pressure;BME280_temperature;BME280_humidity;BME280_pressure;Samples;Min_cycle;Max_cycle;Signal;HPM_P1;HPM_P2
2023/12/16 00:00:36;;;;;;;18.58;10.20;;;;;;;;;;6131484;23;20001;-91
2023/12/16 00:03:02;;;;;;;18.58;10.57;;;;;;;;;;6156463;23;20032;-92
2023/12/16 00:05:28;;;;;;;18.98;10.35;;;;;;;;;;6157010;23;20443;-93
2023/12/16 00:07:54;;;;;;;21.63;10.80;;;;;;;;;;6156750;23;20017;-92
2023/12/16 00:10:21;;;;;;;18.75;10.23;;;;;;;;;;6156373;23;20163;-91
2023/12/16 00:12:47;;;;;;;18.10;10.25;;;;;;;;;;6164456;23;20005;-92
2023/12/16 00:15:14;;;;;;;21.10;10.57;;;;;;;;;;6166242;23;20009;-94
2023/12/16 00:17:40;;;;;;;20.42;10.95;;;;;;;;;;6158854;23;20001;-91
2023/12/16 00:20:09;;;;;;;22.52;10.35;;;;;;;;;;6156104;23;20455;-93
2023/12/16 00:22:39;;;;;;;20.77;10.15;;;;;;;;;;6155959;23;20012;-94
2023/12/16 00:25:09;;;;;;;19.85;9.50;;;;;;;;;;6155924;23;20088;-95
2023/12/16 00:27:36;;;;;;;16.98;9.38;;;;;;;;;;6131229;23;20010;-93
2023/12/16 00:30:02;;;;;;;20.95;10.52;;;;;;;;;;6131430;23;20056;-94
2023/12/16 00:32:28;;;;;;;21.60;11.05;;;;;;;;;;6155370;23;20002;-92
2023/12/16 00:34:54;;;;;;;22.25;11.02;;;;;;;;;;6155876;23;20005;-92
2023/12/16 00:37:22;;;;;;;23.92;11.25;;;;;;;;;;6155636;23;20088;-92
2023/12/16 00:39:48;;;;;;;28.48;12.63;;;;;;;;;;6155710;23;20401;-95
2023/12/16 00:42:14;;;;;;;26.20;12.75;;;;;;;;;;6156269;23;20100;-95
2023/12/16 00:44:41;;;;;;;27.15;13.10;;;;;;;;;;6131594;23;20355;-91
2023/12/16 00:47:10;;;;;;;27.88;12.93;;;;;;;;;;6155660;23;20006;-90
2023/12/16 00:49:36;;;;;;;33.30;14.73;;;;;;;;;;6155768;23;20085;-94
2023/12/16 00:52:03;;;;;;;35.38;14.85;;;;;;;;;;6155765;23;20046;-91
2023/12/16 00:54:29;;;;;;;35.25;16.33;;;;;;;;;;6155960;23;20009;-93
2023/12/16 00:56:55;;;;;;;40.13;17.77;;;;;;;;;;6156230;23;20025;-92
2023/12/16 00:59:22;;;;;;;26.40;13.32;;;;;;;;;;6156020;23;20010;-92
2023/12/16 01:01:50;;;;;;;21.92;10.93;;;;;;;;;;6155703;23;20081;-92
2023/12/16 01:04:16;;;;;;;19.77;12.00;;;;;;;;;;6155950;23;20056;-93
2023/12/16 01:06:42;;;;;;;20.20;9.88;;;;;;;;;;6155882;23;20005;-92
2023/12/16 01:09:10;;;;;;;17.10;9.32;;;;;;;;;;6131446;23;20032;-94
2023/12/16 01:11:36;;;;;;;20.67;10.23;;;;;;;;;;6155924;23;20012;-92
2023/12/16 01:14:02;;;;;;;16.58;9.48;;;;;;;;;;6155575;23;20009;-93
2023/12/16 01:16:29;;;;;;;18.60;9.95;;;;;;;;;;6131245;23;20001;-91
2023/12/16 01:18:55;;;;;;;18.27;9.25;;;;;;;;;;6133422;23;20009;-92
2023/12/16 01:21:21;;;;;;;18.90;9.25;;;;;;;;;;6131250;23;20005;-91
2023/12/16 01:23:48;;;;;;;17.42;9.35;;;;;;;;;;6131113;23;20343;-91
2023/12/16 01:26:14;;;;;;;21.45;10.02;;;;;;;;;;6131301;23;20013;-95
2023/12/16 01:28:40;;;;;;;26.30;12.32;;;;;;;;;;6155698;23;20002;-90
2023/12/16 01:31:06;;;;;;;26.17;12.90;;;;;;;;;;6156451;23;20415;-94
2023/12/16 01:33:32;;;;;;;35.38;14.88;;;;;;;;;;6155654;23;20056;-93
2023/12/16 01:35:59;;;;;;;29.77;13.40;;;;;;;;;;6156094;23;20001;-94
2023/12/16 01:38:25;;;;;;;25.00;13.57;;;;;;;;;;6156667;23;20017;-92
2023/12/16 01:40:51;;;;;;;19.40;9.93;;;;;;;;;;6157595;23;20080;-91
2023/12/16 01:43:17;;;;;;;23.50;10.52;;;;;;;;;;6132776;23;20029;-93
2023/12/16 01:45:43;;;;;;;19.02;10.65;;;;;;;;;;6157343;23;20013;-93
2023/12/16 01:48:12;;;;;;;22.35;10.73;;;;;;;;;;6159076;23;20024;-92
2023/12/16 01:50:38;;;;;;;19.25;10.15;;;;;;;;;;6157975;23;20009;-92
2023/12/16 01:53:05;;;;;;;40.22;17.90;;;;;;;;;;6159506;23;20002;-92
2023/12/16 01:55:32;;;;;;;32.85;14.10;;;;;;;;;;6158043;23;20021;-91
2023/12/16 01:57:59;;;;;;;37.88;16.77;;;;;;;;;;6156871;23;20018;-92
2023/12/16 02:00:27;;;;;;;21.67;10.25;;;;;;;;;;6157452;23;20047;-92
2023/12/16 02:02:53;;;;;;;28.77;13.50;;;;;;;;;;6161381;23;20423;-90
2023/12/16 02:05:20;;;;;;;28.45;12.95;;;;;;;;;;6183107;23;20023;-90
2023/12/16 02:07:46;;;;;;;25.42;13.15;;;;;;;;;;6168232;23;20006;-94
2023/12/16 02:10:13;;;;;;;19.95;10.32;;;;;;;;;;6161117;23;20025;-91
2023/12/16 02:12:39;;;;;;;23.48;12.15;;;;;;;;;;6157037;23;20008;-92
2023/12/16 02:15:06;;;;;;;18.40;9.75;;;;;;;;;;6157543;23;20458;-93
2023/12/16 02:17:32;;;;;;;19.02;10.52;;;;;;;;;;6132435;23;20088;-92
2023/12/16 02:19:58;;;;;;;18.50;10.02;;;;;;;;;;6157157;23;20072;-92
2023/12/16 02:22:24;;;;;;;18.90;10.80;;;;;;;;;;6156505;23;20001;-92
2023/12/16 02:27:54;;;;;;;18.03;9.93;;;;;;;;;;6195194;23;20039;-96
2023/12/16 02:30:23;;;;;;;17.23;9.52;;;;;;;;;;6191847;23;20275;-93
2023/12/16 02:32:49;;;;;;;19.10;10.93;;;;;;;;;;6193424;23;20005;-92
2023/12/16 02:35:15;;;;;;;17.75;10.20;;;;;;;;;;6197529;23;20011;-92
2023/12/16 02:37:42;;;;;;;18.17;10.25;;;;;;;;;;6219051;23;20005;-93
2023/12/16 02:40:10;;;;;;;20.95;11.07;;;;;;;;;;6195570;23;20004;-92
2023/12/16 02:42:36;;;;;;;15.50;9.10;;;;;;;;;;6196666;23;20107;-92
2023/12/16 02:45:02;;;;;;;16.13;9.43;;;;;;;;;;6191767;23;20001;-93
2023/12/16 02:47:28;;;;;;;18.23;10.55;;;;;;;;;;6191495;23;20004;-92
2023/12/16 02:49:54;;;;;;;18.40;9.27;;;;;;;;;;6190947;23;20088;-90
2023/12/16 02:52:20;;;;;;;16.83;9.65;;;;;;;;;;6191217;23;20009;-92
2023/12/16 02:54:46;;;;;;;19.00;9.77;;;;;;;;;;6191331;23;20011;-92
2023/12/16 02:57:12;;;;;;;18.08;9.73;;;;;;;;;;6190585;23;20095;-93
2023/12/16 02:59:39;;;;;;;16.75;8.90;;;;;;;;;;6190994;23;20000;-92
2023/12/16 03:02:05;;;;;;;17.73;9.13;;;;;;;;;;6191113;23;20040;-91
2023/12/16 03:04:31;;;;;;;17.77;9.43;;;;;;;;;;6191695;23;20024;-92
2023/12/16 03:06:58;;;;;;;21.42;10.50;;;;;;;;;;6218336;23;20005;-92
2023/12/16 03:09:24;;;;;;;16.75;9.65;;;;;;;;;;6192073;23;20433;-91
2023/12/16 03:11:51;;;;;;;18.42;11.27;;;;;;;;;;6191609;23;20035;-92
2023/12/16 03:14:19;;;;;;;21.08;10.95;;;;;;;;;;6190870;23;20007;-91
2023/12/16 03:16:45;;;;;;;17.02;9.68;;;;;;;;;;6191141;23;20005;-93
2023/12/16 03:19:12;;;;;;;22.02;11.82;;;;;;;;;;6190821;23;20005;-92
2023/12/16 03:21:38;;;;;;;20.45;12.18;;;;;;;;;;6190980;23;20041;-92
2023/12/16 03:24:04;;;;;;;22.98;12.10;;;;;;;;;;6193299;23;20422;-92
2023/12/16 03:26:30;;;;;;;22.33;12.05;;;;;;;;;;6191294;23;20016;-92
2023/12/16 03:28:56;;;;;;;20.73;11.63;;;;;;;;;;6191419;23;20015;-93
2023/12/16 03:31:22;;;;;;;23.00;11.63;;;;;;;;;;6191239;23;20004;-92
2023/12/16 03:33:49;;;;;;;19.92;10.80;;;;;;;;;;6191680;23;20023;-91
2023/12/16 03:36:15;;;;;;;23.10;10.30;;;;;;;;;;6191644;23;20468;-92
2023/12/16 03:38:44;;;;;;;22.05;10.90;;;;;;;;;;6191472;23;20018;-92
2023/12/16 03:41:10;;;;;;;20.23;10.00;;;;;;;;;;6190787;23;20004;-92
2023/12/16 03:43:36;;;;;;;16.25;9.43;;;;;;;;;;6191306;23;20016;-92
2023/12/16 03:46:02;;;;;;;18.90;10.48;;;;;;;;;;6190695;23;20013;-92
2023/12/16 03:48:28;;;;;;;17.52;9.90;;;;;;;;;;6191114;23;20422;-92
2023/12/16 03:50:55;;;;;;;22.17;11.68;;;;;;;;;;6191362;23;20016;-91
2023/12/16 03:53:21;;;;;;;23.67;11.15;;;;;;;;;;6191235;23;20000;-92
2023/12/16 03:55:47;;;;;;;21.42;12.98;;;;;;;;;;6190759;23;20004;-92
2023/12/16 03:58:13;;;;;;;23.70;13.02;;;;;;;;;;6190828;23;20035;-94
2023/12/16 04:00:40;;;;;;;21.77;11.88;;;;;;;;;;6190575;23;20026;-94
2023/12/16 04:03:06;;;;;;;21.92;12.23;;;;;;;;;;6190954;23;20019;-91
2023/12/16 04:05:32;;;;;;;23.38;11.68;;;;;;;;;;6191304;23;20015;-92
2023/12/16 04:07:58;;;;;;;22.55;11.50;;;;;;;;;;6191115;23;20083;-92
2023/12/16 04:10:25;;;;;;;20.33;11.63;;;;;;;;;;6190625;23;20008;-95
2023/12/16 04:12:51;;;;;;;24.55;12.00;;;;;;;;;;6190763;23;20027;-94
2023/12/16 04:15:17;;;;;;;20.73;10.30;;;;;;;;;;6190817;23;20008;-92
2023/12/16 04:17:43;;;;;;;23.40;10.45;;;;;;;;;;6191446;23;20004;-92
2023/12/16 04:20:10;;;;;;;19.90;10.95;;;;;;;;;;6190936;23;20357;-92
2023/12/16 04:22:37;;;;;;;22.67;11.57;;;;;;;;;;6190624;23;20413;-91
2023/12/16 04:25:09;;;;;;;21.10;11.25;;;;;;;;;;6190791;23;20016;-92
2023/12/16 04:27:35;;;;;;;23.75;10.90;;;;;;;;;;6185521;23;20017;-95
2023/12/16 04:30:03;;;;;;;23.35;10.38;;;;;;;;;;6186369;23;20029;-93
2023/12/16 04:32:30;;;;;;;18.42;10.32;;;;;;;;;;6185819;23;20005;-95
2023/12/16 04:34:56;;;;;;;21.38;10.63;;;;;;;;;;6186680;23;20005;-94
2023/12/16 04:37:22;;;;;;;23.75;11.10;;;;;;;;;;6186128;23;20009;-92
2023/12/16 04:39:48;;;;;;;24.33;10.98;;;;;;;;;;6185531;23;20326;-91
2023/12/16 04:42:14;;;;;;;19.08;9.30;;;;;;;;;;6185455;23;20092;-93
2023/12/16 04:44:40;;;;;;;16.27;9.27;;;;;;;;;;6187505;23;20005;-89
2023/12/16 04:47:07;;;;;;;18.77;10.02;;;;;;;;;;6211563;23;20000;-89
2023/12/16 04:49:33;;;;;;;16.73;9.48;;;;;;;;;;6196968;23;20028;-92
2023/12/16 04:52:01;;;;;;;17.42;9.95;;;;;;;;;;6188155;23;20004;-91
2023/12/16 04:54:30;;;;;;;17.00;9.77;;;;;;;;;;6185435;23;20080;-93
2023/12/16 04:56:56;;;;;;;19.40;10.73;;;;;;;;;;6185498;23;20009;-92
2023/12/16 04:59:24;;;;;;;18.42;9.90;;;;;;;;;;6186492;23;20484;-94
2023/12/16 05:01:50;;;;;;;17.48;10.25;;;;;;;;;;6190508;23;20422;-92
2023/12/16 05:04:16;;;;;;;20.42;10.27;;;;;;;;;;6186312;23;20017;-91
2023/12/16 05:06:42;;;;;;;18.45;9.20;;;;;;;;;;6188627;23;20027;-91
2023/12/16 05:09:12;;;;;;;18.70;10.65;;;;;;;;;;6185942;23;20027;-92
2023/12/16 05:11:38;;;;;;;19.27;9.35;;;;;;;;;;6186352;23;20100;-92
2023/12/16 05:14:04;;;;;;;19.60;9.95;;;;;;;;;;6187446;23;20009;-92
2023/12/16 05:16:31;;;;;;;20.60;10.15;;;;;;;;;;6187398;23;20449;-92
2023/12/16 05:18:59;;;;;;;19.42;9.98;;;;;;;;;;6187481;23;20079;-92
2023/12/16 05:21:27;;;;;;;19.30;9.90;;;;;;;;;;6187720;23;20009;-94
2023/12/16 05:23:55;;;;;;;23.25;10.15;;;;;;;;;;6188471;23;20001;-93
2023/12/16 05:26:23;;;;;;;17.48;9.68;;;;;;;;;;6187283;23;20080;-92
2023/12/16 05:28:49;;;;;;;22.83;11.52;;;;;;;;;;6187365;23;20088;-92
2023/12/16 05:31:15;;;;;;;23.55;11.20;;;;;;;;;;6187367;23;20096;-92
2023/12/16 05:33:43;;;;;;;19.35;11.05;;;;;;;;;;6188075;23;20012;-92
2023/12/16 05:36:10;;;;;;;21.48;11.43;;;;;;;;;;6188480;23;20001;-92
2023/12/16 05:38:38;;;;;;;23.75;11.57;;;;;;;;;;6188431;23;20016;-92
2023/12/16 05:41:04;;;;;;;22.65;11.60;;;;;;;;;;6188381;23;20005;-94
2023/12/16 05:43:30;;;;;;;18.20;10.13;;;;;;;;;;6188384;23;20012;-92
2023/12/16 05:45:56;;;;;;;21.88;10.20;;;;;;;;;;6192608;23;20013;-91
2023/12/16 05:48:22;;;;;;;18.23;10.07;;;;;;;;;;6193725;23;20422;-93
2023/12/16 05:50:48;;;;;;;18.55;10.27;;;;;;;;;;6187836;23;20009;-95
2023/12/16 05:53:14;;;;;;;23.00;11.35;;;;;;;;;;6187306;23;20013;-93
2023/12/16 05:55:40;;;;;;;20.17;10.85;;;;;;;;;;6187144;23;20035;-92
2023/12/16 05:58:06;;;;;;;19.95;10.30;;;;;;;;;;6187109;23;20009;-93
2023/12/16 06:00:33;;;;;;;18.63;10.15;;;;;;;;;;6187097;23;20033;-93
2023/12/16 06:02:59;;;;;;;25.85;13.15;;;;;;;;;;6187263;23;20012;-93
2023/12/16 06:05:25;;;;;;;26.02;13.80;;;;;;;;;;6187176;23;20013;-93
2023/12/16 06:07:51;;;;;;;26.83;13.85;;;;;;;;;;6187066;23;20005;-91
2023/12/16 06:10:18;;;;;;;28.00;11.45;;;;;;;;;;6186814;23;20005;-93
2023/12/16 06:12:44;;;;;;;18.77;10.32;;;;;;;;;;6186691;23;20012;-91
2023/12/16 06:15:10;;;;;;;17.75;9.68;;;;;;;;;;6187381;23;20032;-90
2023/12/16 06:17:36;;;;;;;18.75;9.88;;;;;;;;;;6186959;23;20008;-92
2023/12/16 06:23:30;;;;;;;17.70;9.48;;;;;;;;;;6187427;23;20032;-92
2023/12/16 06:25:57;;;;;;;22.17;10.45;;;;;;;;;;6186609;23;20033;-91
2023/12/16 06:28:23;;;;;;;18.67;9.18;;;;;;;;;;6186706;23;20017;-90
2023/12/16 06:30:49;;;;;;;19.60;11.27;;;;;;;;;;6186655;23;20009;-92
2023/12/16 06:33:15;;;;;;;20.00;11.13;;;;;;;;;;6187236;23;20338;-92
2023/12/16 06:35:41;;;;;;;23.17;11.38;;;;;;;;;;6186926;23;20013;-90
2023/12/16 06:38:07;;;;;;;19.00;10.43;;;;;;;;;;6186916;23;20001;-92
2023/12/16 06:40:33;;;;;;;17.60;9.73;;;;;;;;;;6187232;23;20430;-90
2023/12/16 06:42:59;;;;;;;18.00;9.85;;;;;;;;;;6186961;23;20119;-90
2023/12/16 06:45:26;;;;;;;17.35;9.13;;;;;;;;;;6187177;23;20020;-91
2023/12/16 06:47:52;;;;;;;18.45;10.25;;;;;;;;;;6188260;23;20064;-90
2023/12/16 06:50:18;;;;;;;17.52;8.25;;;;;;;;;;6186910;23;20092;-90
2023/12/16 06:52:47;;;;;;;21.45;10.52;;;;;;;;;;6186969;23;20001;-91
2023/12/16 06:55:17;;;;;;;23.25;10.05;;;;;;;;;;6187470;23;20033;-90
2023/12/16 06:57:43;;;;;;;16.15;8.57;;;;;;;;;;6186766;23;20446;-90
2023/12/16 07:00:10;;;;;;;14.35;8.98;;;;;;;;;;6186580;23;20079;-91
2023/12/16 07:02:43;;;;;;;18.10;9.20;;;;;;;;;;6186473;23;20017;-92
2023/12/16 07:05:10;;;;;;;16.40;9.00;;;;;;;;;;6187150;23;20024;-91
2023/12/16 07:07:37;;;;;;;15.40;8.80;;;;;;;;;;6186555;23;20071;-91
2023/12/16 07:10:08;;;;;;;18.60;8.52;;;;;;;;;;6163237;23;20020;-91
2023/12/16 07:12:34;;;;;;;19.77;8.80;;;;;;;;;;6186552;23;20001;-91
2023/12/16 07:15:00;;;;;;;20.27;9.18;;;;;;;;;;6186506;23;20020;-91
2023/12/16 07:17:31;;;;;;;21.00;9.80;;;;;;;;;;6186677;23;20062;-92
2023/12/16 07:19:57;;;;;;;20.27;9.77;;;;;;;;;;6186593;23;20001;-92
2023/12/16 07:22:23;;;;;;;19.13;9.68;;;;;;;;;;6186057;23;20308;-90
2023/12/16 07:24:49;;;;;;;18.38;9.45;;;;;;;;;;6186231;23;20009;-92
2023/12/16 07:27:16;;;;;;;19.35;9.43;;;;;;;;;;6185938;23;20338;-92
2023/12/16 07:32:45;;;;;;;15.63;8.93;;;;;;;;;;6201718;23;20081;-94
2023/12/16 07:35:15;;;;;;;20.13;10.40;;;;;;;;;;6191206;23;20040;-91
2023/12/16 07:37:43;;;;;;;18.77;9.27;;;;;;;;;;6188068;23;20001;-92
2023/12/16 07:40:11;;;;;;;17.42;10.10;;;;;;;;;;6186347;23;20012;-91
2023/12/16 07:42:37;;;;;;;15.63;9.50;;;;;;;;;;6185891;23;20080;-92
2023/12/16 07:45:06;;;;;;;20.42;10.25;;;;;;;;;;6186710;23;20031;-94
2023/12/16 07:47:33;;;;;;;16.75;8.48;;;;;;;;;;6187533;23;20009;-95
2023/12/16 07:49:59;;;;;;;18.38;8.77;;;;;;;;;;6187462;23;20005;-92
2023/12/16 07:52:28;;;;;;;17.85;9.43;;;;;;;;;;6190994;23;20009;-96
2023/12/16 07:54:58;;;;;;;15.23;8.75;;;;;;;;;;6191832;23;20005;-94
2023/12/16 07:57:57;;;;;;;16.42;8.63;;;;;;;;;;6194744;23;20029;-94
2023/12/16 08:03:05;;;;;;;13.63;8.23;;;;;;;;;;6208559;22;20025;-95
2023/12/16 08:05:46;;;;;;;14.35;7.10;;;;;;;;;;6216396;23;20078;-95
2023/12/16 08:08:19;;;;;;;13.15;7.68;;;;;;;;;;6225349;23;19988;-95
2023/12/16 08:13:46;;;;;;;18.25;8.90;;;;;;;;;;6225370;22;20086;-92
2023/12/16 08:16:15;;;;;;;14.95;7.93;;;;;;;;;;6225232;23;19989;-96
2023/12/16 08:18:41;;;;;;;14.27;6.93;;;;;;;;;;6232639;23;20087;-92
2023/12/16 08:21:07;;;;;;;16.70;8.45;;;;;;;;;;6196095;23;20007;-93
2023/12/16 08:23:36;;;;;;;14.27;7.68;;;;;;;;;;6223141;23;20051;-93
2023/12/16 08:26:03;;;;;;;18.23;6.95;;;;;;;;;;6223750;23;20019;-92
2023/12/16 08:28:30;;;;;;;12.65;7.10;;;;;;;;;;6219296;23;20455;-94
2023/12/16 08:30:56;;;;;;;13.55;7.65;;;;;;;;;;6218391;23;20011;-95
2023/12/16 08:33:36;;;;;;;14.80;7.60;;;;;;;;;;6218501;22;20024;-96
2023/12/16 08:36:23;;;;;;;15.38;8.50;;;;;;;;;;6225755;23;20051;-93
2023/12/16 08:38:53;;;;;;;19.00;8.80;;;;;;;;;;6224099;23;20004;-95
2023/12/16 08:41:19;;;;;;;11.70;6.63;;;;;;;;;;6219807;23;20061;-94
2023/12/16 08:43:48;;;;;;;12.98;7.60;;;;;;;;;;6219860;23;20022;-96
2023/12/16 08:46:15;;;;;;;12.60;7.82;;;;;;;;;;6217587;23;20044;-92
2023/12/16 08:48:41;;;;;;;15.60;7.35;;;;;;;;;;6217190;23;20027;-94
2023/12/16 08:51:19;;;;;;;12.65;7.25;;;;;;;;;;6220218;23;20105;-96
2023/12/16 08:53:46;;;;;;;12.75;8.63;;;;;;;;;;6216637;23;20075;-93
2023/12/16 08:56:12;;;;;;;13.45;7.28;;;;;;;;;;6215427;23;20005;-95
2023/12/16 08:58:38;;;;;;;14.20;9.20;;;;;;;;;;6217346;23;20453;-92
2023/12/16 09:01:05;;;;;;;14.52;7.50;;;;;;;;;;6231308;23;20095;-91
2023/12/16 09:03:31;;;;;;;16.25;9.57;;;;;;;;;;6216471;23;20004;-91
2023/12/16 09:05:57;;;;;;;19.60;9.10;;;;;;;;;;6215434;23;20067;-91
2023/12/16 09:08:23;;;;;;;12.75;7.90;;;;;;;;;;6215856;23;20062;-91
2023/12/16 09:10:49;;;;;;;16.02;8.50;;;;;;;;;;6215479;23;20008;-94
2023/12/16 09:13:15;;;;;;;13.32;8.95;;;;;;;;;;6215315;23;20004;-91
2023/12/16 09:15:41;;;;;;;11.70;7.22;;;;;;;;;;6215233;23;20088;-91
2023/12/16 09:18:07;;;;;;;13.98;9.73;;;;;;;;;;6215323;23;20000;-91
2023/12/16 09:20:34;;;;;;;14.23;9.25;;;;;;;;;;6215357;23;20040;-93
2023/12/16 09:23:01;;;;;;;16.98;9.13;;;;;;;;;;6215395;23;20005;-92
2023/12/16 09:25:27;;;;;;;14.45;9.10;;;;;;;;;;6215091;23;20012;-91
2023/12/16 09:27:54;;;;;;;13.23;8.90;;;;;;;;;;6216071;23;20032;-91
2023/12/16 09:30:20;;;;;;;15.93;7.78;;;;;;;;;;6215471;23;20048;-92
2023/12/16 09:32:48;;;;;;;12.80;7.90;;;;;;;;;;6215676;23;20005;-96
2023/12/16 09:35:14;;;;;;;14.07;8.30;;;;;;;;;;6215743;23;20022;-91
2023/12/16 09:37:41;;;;;;;15.88;8.80;;;;;;;;;;6215368;23;20004;-92
2023/12/16 09:40:10;;;;;;;19.30;10.75;;;;;;;;;;6215733;23;20004;-92
2023/12/16 09:42:37;;;;;;;15.60;9.73;;;;;;;;;;6215066;23;20039;-92
2023/12/16 09:45:03;;;;;;;15.52;8.68;;;;;;;;;;6215238;23;20023;-94
2023/12/16 09:47:29;;;;;;;13.18;8.20;;;;;;;;;;6215065;23;20054;-91
2023/12/16 09:50:00;;;;;;;19.10;9.85;;;;;;;;;;6214852;23;20127;-92
2023/12/16 09:52:29;;;;;;;21.15;12.05;;;;;;;;;;6215289;23;20043;-93
2023/12/16 09:54:55;;;;;;;18.58;10.35;;;;;;;;;;6214884;23;20015;-91
2023/12/16 09:57:23;;;;;;;16.83;9.77;;;;;;;;;;6215157;23;20016;-93
2023/12/16 09:59:50;;;;;;;14.65;9.13;;;;;;;;;;6216351;23;20028;-94
2023/12/16 10:02:22;;;;;;;16.92;10.60;;;;;;;;;;6216945;23;20333;-92
2023/12/16 10:04:51;;;;;;;17.27;9.93;;;;;;;;;;6217087;23;20323;-92
2023/12/16 10:07:17;;;;;;;22.73;11.43;;;;;;;;;;6216544;23;20032;-92
2023/12/16 10:09:43;;;;;;;18.77;11.02;;;;;;;;;;6216802;23;20058;-92
2023/12/16 10:15:14;;;;;;;14.88;8.80;;;;;;;;;;6218397;23;20019;-92
2023/12/16 10:17:40;;;;;;;17.27;10.07;;;;;;;;;;6217575;23;20013;-90
2023/12/16 10:20:07;;;;;;;17.35;10.35;;;;;;;;;;6235989;23;20012;-89
2023/12/16 10:22:33;;;;;;;14.80;9.32;;;;;;;;;;6219825;23;20018;-92
2023/12/16 10:25:00;;;;;;;15.93;9.63;;;;;;;;;;6217375;23;20012;-91
2023/12/16 10:27:27;;;;;;;16.13;9.68;;;;;;;;;;6216888;23;20005;-92
2023/12/16 10:29:54;;;;;;;15.68;10.27;;;;;;;;;;6217255;23;20114;-94
2023/12/16 10:32:20;;;;;;;15.85;9.93;;;;;;;;;;6217146;23;20448;-91
2023/12/16 10:34:46;;;;;;;15.32;10.15;;;;;;;;;;6217123;23;20095;-92
2023/12/16 10:37:12;;;;;;;13.07;7.72;;;;;;;;;;6217200;23;20011;-91
2023/12/16 10:39:38;;;;;;;15.80;10.25;;;;;;;;;;6222514;23;20036;-91
2023/12/16 10:42:04;;;;;;;13.02;8.77;;;;;;;;;;6231901;23;20091;-93
2023/12/16 10:44:31;;;;;;;12.15;8.45;;;;;;;;;;6216909;23;20016;-92
2023/12/16 10:46:57;;;;;;;15.55;9.20;;;;;;;;;;6217132;23;20099;-92
2023/12/16 10:49:31;;;;;;;21.33;11.95;;;;;;;;;;6217062;23;20059;-93
2023/12/16 10:52:02;;;;;;;13.98;10.15;;;;;;;;;;6216748;23;20035;-91
2023/12/16 10:54:31;;;;;;;25.33;19.85;;;;;;;;;;6217430;23;20005;-95
2023/12/16 10:57:09;;;;;;;16.50;10.55;;;;;;;;;;6216652;23;20012;-93
2023/12/16 10:59:41;;;;;;;17.40;12.02;;;;;;;;;;6217003;23;20372;-93
2023/12/16 11:02:12;;;;;;;17.63;10.27;;;;;;;;;;6217014;23;20007;-92
2023/12/16 11:04:39;;;;;;;15.77;9.80;;;;;;;;;;6217081;23;20019;-91
2023/12/16 11:07:06;;;;;;;15.68;10.80;;;;;;;;;;6217261;23;20005;-93
2023/12/16 11:09:33;;;;;;;16.75;8.50;;;;;;;;;;6217148;23;20000;-92
2023/12/16 11:12:00;;;;;;;16.55;9.50;;;;;;;;;;6219282;23;20024;-92
2023/12/16 11:15:09;;;;;;;17.42;10.15;;;;;;;;;;6218386;23;20004;-93
2023/12/16 11:17:56;;;;;;;15.98;9.02;;;;;;;;;;6217759;23;20009;-96
2023/12/16 11:26:37;;;;;;;18.52;12.82;;;;;;;;;;6218305;23;20043;-93
2023/12/16 11:29:04;;;;;;;15.25;10.02;;;;;;;;;;6216717;23;20370;-92
2023/12/16 11:31:30;;;;;;;23.42;11.27;;;;;;;;;;6215693;23;20426;-93
2023/12/16 11:33:57;;;;;;;19.17;12.60;;;;;;;;;;6215947;23;20024;-92
2023/12/16 11:36:42;;;;;;;27.27;21.20;;;;;;;;;;6216056;23;20011;-94
2023/12/16 11:39:26;;;;;;;16.42;11.23;;;;;;;;;;6216078;23;20044;-92
2023/12/16 11:41:52;;;;;;;20.80;9.93;;;;;;;;;;6218411;23;20009;-92
2023/12/16 11:44:45;;;;;;;17.42;11.73;;;;;;;;;;6218731;23;20025;-91
2023/12/16 11:47:27;;;;;;;15.43;13.52;;;;;;;;;;6215736;23;20137;-91
2023/12/16 11:49:57;;;;;;;21.77;14.18;;;;;;;;;;6217328;23;20012;-91
2023/12/16 11:52:29;;;;;;;15.27;13.60;;;;;;;;;;6216244;23;20087;-90
2023/12/16 11:54:56;;;;;;;18.35;10.68;;;;;;;;;;6216306;23;20025;-91
2023/12/16 11:57:38;;;;;;;21.05;17.50;;;;;;;;;;6218566;23;20444;-93
2023/12/16 12:00:04;;;;;;;12.70;11.30;;;;;;;;;;6215772;23;20000;-92
2023/12/16 12:05:37;;;;;;;17.65;15.88;;;;;;;;;;6218937;23;20108;-95
2023/12/16 12:08:06;;;;;;;16.92;14.95;;;;;;;;;;6216015;23;20005;-91
2023/12/16 12:10:37;;;;;;;17.95;16.00;;;;;;;;;;6216108;23;20016;-90
2023/12/16 12:13:03;;;;;;;18.10;13.75;;;;;;;;;;6217287;23;20009;-89
2023/12/16 12:15:35;;;;;;;16.83;12.43;;;;;;;;;;6218131;23;20009;-90
2023/12/16 12:21:19;;;;;;;11.98;9.20;;;;;;;;;;6193188;23;20012;-93
2023/12/16 12:23:48;;;;;;;12.75;9.40;;;;;;;;;;6217184;23;20008;-94
2023/12/16 12:26:36;;;;;;;15.35;10.35;;;;;;;;;;6224568;23;20016;-96
2023/12/16 12:31:41;;;;;;;26.60;17.58;;;;;;;;;;6218374;22;20024;-92
2023/12/16 12:34:24;;;;;;;10.93;7.53;;;;;;;;;;6218323;23;20024;-94
2023/12/16 12:37:04;;;;;;;26.00;16.90;;;;;;;;;;6227547;23;20021;-91
2023/12/16 12:39:30;;;;;;;16.48;8.93;;;;;;;;;;6228342;23;20011;-95
2023/12/16 12:42:22;;;;;;;;;;;;;;;;;;;;;
2023/12/16 12:44:58;;;;;;;33.35;18.52;;;;;;;;;;6218244;23;20080;-94
2023/12/16 12:47:28;;;;;;;17.42;8.48;;;;;;;;;;6215340;23;20018;-91
2023/12/16 12:52:56;;;;;;;18.05;12.23;;;;;;;;;;6129017;23;20006;-93
2023/12/16 12:55:56;;;;;;;13.05;9.07;;;;;;;;;;6101266;23;20072;-95
2023/12/16 12:59:09;;;;;;;13.30;8.02;;;;;;;;;;6111130;23;20092;-93
2023/12/16 13:01:35;;;;;;;12.02;6.88;;;;;;;;;;6139638;23;20021;-93
2023/12/16 13:04:07;;;;;;;10.82;7.18;;;;;;;;;;6102493;23;20006;-94
2023/12/16 13:06:33;;;;;;;11.15;7.15;;;;;;;;;;6101332;23;20069;-94
2023/12/16 13:14:48;;;;;;;14.13;7.55;;;;;;;;;;6220385;23;20338;-93
2023/12/16 13:17:42;;;;;;;24.10;16.30;;;;;;;;;;6216797;23;20023;-94
2023/12/16 13:23:06;;;;;;;13.93;7.40;;;;;;;;;;6216650;23;19991;-94
2023/12/16 13:28:57;;;;;;;16.10;7.97;;;;;;;;;;6216039;23;20040;-94
2023/12/16 13:38:10;;;;;;;16.40;9.68;;;;;;;;;;6132004;23;20025;-91
2023/12/16 13:40:42;;;;;;;15.65;8.20;;;;;;;;;;6104145;23;20012;-94
2023/12/16 13:43:17;;;;;;;15.27;8.75;;;;;;;;;;6102400;23;20017;-92
2023/12/16 13:45:55;;;;;;;14.45;7.72;;;;;;;;;;6165720;23;20019;-92
2023/12/16 13:57:08;;;;;;;13.77;8.38;;;;;;;;;;6278981;22;20115;-95
2023/12/16 14:05:42;;;;;;;17.27;8.02;;;;;;;;;;6191504;22;20059;-93
2023/12/16 14:14:08;;;;;;;21.67;10.50;;;;;;;;;;6166821;23;20462;-95
2023/12/16 14:16:46;;;;;;;19.15;9.80;;;;;;;;;;6218147;23;20011;-95
2023/12/16 14:19:19;;;;;;;18.92;9.15;;;;;;;;;;6217580;23;20009;-96
2023/12/16 14:21:45;;;;;;;17.23;7.85;;;;;;;;;;6217601;23;20005;-93
2023/12/16 14:24:20;;;;;;;16.00;7.30;;;;;;;;;;6220117;23;20004;-94
2023/12/16 14:26:52;;;;;;;18.85;9.27;;;;;;;;;;6225457;23;20016;-91
2023/12/16 14:32:27;;;;;;;18.80;9.25;;;;;;;;;;6231700;23;20063;-90
2023/12/16 14:34:54;;;;;;;22.08;8.43;;;;;;;;;;6220317;23;20004;-91
2023/12/16 14:37:53;;;;;;;16.90;7.90;;;;;;;;;;6220578;23;20009;-91
2023/12/16 14:40:24;;;;;;;16.02;8.05;;;;;;;;;;6225662;23;20009;-92
2023/12/16 14:42:50;;;;;;;14.05;7.68;;;;;;;;;;6227106;23;20018;-91
2023/12/16 14:45:16;;;;;;;16.98;8.63;;;;;;;;;;6224950;23;20023;-91
2023/12/16 14:48:05;;;;;;;18.13;8.43;;;;;;;;;;6219549;23;20001;-95
2023/12/16 14:50:46;;;;;;;17.10;9.25;;;;;;;;;;6222828;23;20000;-96
2023/12/16 14:53:12;;;;;;;15.93;8.70;;;;;;;;;;6218769;23;20084;-89
2023/12/16 14:55:40;;;;;;;17.65;9.40;;;;;;;;;;6217144;23;20054;-92
2023/12/16 14:58:09;;;;;;;24.63;11.10;;;;;;;;;;6219998;23;20009;-95
2023/12/16 15:00:35;;;;;;;23.52;11.63;;;;;;;;;;6217139;23;20011;-91
2023/12/16 15:03:01;;;;;;;24.90;11.13;;;;;;;;;;6229364;23;20009;-90
2023/12/16 15:05:27;;;;;;;20.75;10.63;;;;;;;;;;6219323;23;20013;-91
2023/12/16 15:07:54;;;;;;;26.15;11.55;;;;;;;;;;6224689;23;20004;-92
2023/12/16 15:10:20;;;;;;;24.05;11.85;;;;;;;;;;6218531;23;20012;-90
2023/12/16 15:13:03;;;;;;;28.60;11.38;;;;;;;;;;6220578;23;20032;-96
2023/12/16 15:21:03;;;;;;;25.40;11.85;;;;;;;;;;6203232;23;20024;-93
2023/12/16 15:23:29;;;;;;;21.38;11.73;;;;;;;;;;6225679;23;20001;-90
2023/12/16 15:29:02;;;;;;;27.27;12.17;;;;;;;;;;6230229;23;20012;-91
2023/12/16 15:31:54;;;;;;;32.20;12.38;;;;;;;;;;6229620;23;20327;-90
2023/12/16 15:34:21;;;;;;;25.40;12.25;;;;;;;;;;6227029;23;20035;-90
2023/12/16 15:36:50;;;;;;;33.00;10.05;;;;;;;;;;6217972;23;20053;-90
2023/12/16 15:45:32;;;;;;;33.13;11.35;;;;;;;;;;6201665;23;20060;-90
2023/12/16 15:47:58;;;;;;;27.58;12.18;;;;;;;;;;6194338;23;20443;-92
2023/12/16 15:50:25;;;;;;;34.95;13.85;;;;;;;;;;6194384;23;20005;-91
2023/12/16 15:52:52;;;;;;;30.23;13.10;;;;;;;;;;6193668;23;20009;-90
2023/12/16 15:55:18;;;;;;;29.08;13.40;;;;;;;;;;6193689;23;20001;-91
2023/12/16 16:01:10;;;;;;;42.90;15.25;;;;;;;;;;6199056;23;20039;-92
2023/12/16 16:06:12;;;;;;;27.73;12.48;;;;;;;;;;6199098;22;20230;-92
2023/12/16 16:08:38;;;;;;;27.42;12.57;;;;;;;;;;6170538;23;19985;-93
2023/12/16 16:11:13;;;;;;;21.58;9.75;;;;;;;;;;6164636;23;20063;-93